sensor_id;sensor_type;location;lat;lon;timestamp;P1;durP1;ratioP1;P2;durP2;ratioP2
78169;SDS011;67412;49.892;14.490;2023-07-24T00:02:06;6.82;;;2.45;;
78169;SDS011;67412;49.892;14.490;2023-07-24T00:04:31;7.75;;;2.67;;
78169;SDS011;67412;49.892;14.490;2023-07-24T00:06:57;8.10;;;2.70;;
78169;SDS011;67412;49.892;14.490;2023-07-24T00:09:22;8.50;;;2.42;;
78169;SDS011;67412;49.892;14.490;2023-07-24T00:11:48;6.80;;;2.80;;
78169;SDS011;67412;49.892;14.490;2023-07-24T00:14:14;7.10;;;2.50;;
78169;SDS011;67412;49.892;14.490;2023-07-24T00:16:40;7.00;;;2.20;;
78169;SDS011;67412;49.892;14.490;2023-07-24T00:19:06;9.60;;;3.15;;
78169;SDS011;67412;49.892;14.490;2023-07-24T00:21:31;7.65;;;2.88;;
78169;SDS011;67412;49.892;14.490;2023-07-24T00:23:56;7.22;;;2.83;;
78169;SDS011;67412;49.892;14.490;2023-07-24T00:26:22;6.97;;;2.60;;
78169;SDS011;67412;49.892;14.490;2023-07-24T00:28:47;7.20;;;2.78;;
78169;SDS011;67412;49.892;14.490;2023-07-24T00:31:12;7.55;;;2.80;;
78169;SDS011;67412;49.892;14.490;2023-07-24T00:33:38;7.45;;;2.60;;
78169;SDS011;67412;49.892;14.490;2023-07-24T00:36:03;8.00;;;2.55;;
78169;SDS011;67412;49.892;14.490;2023-07-24T00:38:28;6.50;;;2.28;;
78169;SDS011;67412;49.892;14.490;2023-07-24T00:40:54;7.40;;;2.47;;
78169;SDS011;67412;49.892;14.490;2023-07-24T00:43:19;6.35;;;2.28;;
78169;SDS011;67412;49.892;14.490;2023-07-24T00:45:44;6.45;;;2.30;;
78169;SDS011;67412;49.892;14.490;2023-07-24T00:48:11;6.80;;;2.75;;
78169;SDS011;67412;49.892;14.490;2023-07-24T00:50:37;8.55;;;2.65;;
78169;SDS011;67412;49.892;14.490;2023-07-24T00:53:03;9.18;;;2.70;;
78169;SDS011;67412;49.892;14.490;2023-07-24T00:55:29;7.70;;;2.33;;
78169;SDS011;67412;49.892;14.490;2023-07-24T00:57:55;7.70;;;2.83;;
78169;SDS011;67412;49.892;14.490;2023-07-24T01:00:22;7.30;;;2.63;;
78169;SDS011;67412;49.892;14.490;2023-07-24T01:02:48;7.70;;;2.78;;
78169;SDS011;67412;49.892;14.490;2023-07-24T01:05:13;8.55;;;3.03;;
78169;SDS011;67412;49.892;14.490;2023-07-24T01:07:42;6.88;;;2.88;;
78169;SDS011;67412;49.892;14.490;2023-07-24T01:10:07;7.10;;;2.40;;
78169;SDS011;67412;49.892;14.490;2023-07-24T01:12:41;7.50;;;2.70;;
78169;SDS011;67412;49.892;14.490;2023-07-24T01:15:19;7.10;;;2.78;;
78169;SDS011;67412;49.892;14.490;2023-07-24T01:17:57;6.60;;;2.25;;
78169;SDS011;67412;49.892;14.490;2023-07-24T01:20:26;7.93;;;2.90;;
78169;SDS011;67412;49.892;14.490;2023-07-24T01:27:51;8.07;;;2.55;;
78169;SDS011;67412;49.892;14.490;2023-07-24T01:30:17;6.93;;;2.30;;
78169;SDS011;67412;49.892;14.490;2023-07-24T01:32:43;7.97;;;2.38;;
78169;SDS011;67412;49.892;14.490;2023-07-24T01:35:09;7.47;;;2.70;;
78169;SDS011;67412;49.892;14.490;2023-07-24T01:37:35;6.95;;;2.50;;
78169;SDS011;67412;49.892;14.490;2023-07-24T01:40:04;9.02;;;2.38;;
78169;SDS011;67412;49.892;14.490;2023-07-24T01:44:56;7.40;;;2.30;;
78169;SDS011;67412;49.892;14.490;2023-07-24T01:47:21;7.25;;;2.55;;
78169;SDS011;67412;49.892;14.490;2023-07-24T01:49:47;8.57;;;3.00;;
78169;SDS011;67412;49.892;14.490;2023-07-24T01:52:12;6.85;;;2.72;;
78169;SDS011;67412;49.892;14.490;2023-07-24T01:54:38;16.23;;;5.00;;
78169;SDS011;67412;49.892;14.490;2023-07-24T01:57:04;8.23;;;2.72;;
78169;SDS011;67412;49.892;14.490;2023-07-24T01:59:29;7.07;;;2.58;;
78169;SDS011;67412;49.892;14.490;2023-07-24T02:01:55;8.10;;;2.30;;
78169;SDS011;67412;49.892;14.490;2023-07-24T02:04:20;6.15;;;2.40;;
78169;SDS011;67412;49.892;14.490;2023-07-24T02:06:47;7.07;;;2.63;;
78169;SDS011;67412;49.892;14.490;2023-07-24T02:09:13;7.10;;;2.53;;
78169;SDS011;67412;49.892;14.490;2023-07-24T02:11:38;6.85;;;2.30;;
78169;SDS011;67412;49.892;14.490;2023-07-24T02:14:04;8.38;;;2.70;;
78169;SDS011;67412;49.892;14.490;2023-07-24T02:16:29;9.23;;;2.60;;
78169;SDS011;67412;49.892;14.490;2023-07-24T02:18:54;8.10;;;2.80;;
78169;SDS011;67412;49.892;14.490;2023-07-24T02:21:20;9.48;;;3.08;;
78169;SDS011;67412;49.892;14.490;2023-07-24T02:23:45;6.95;;;2.60;;
78169;SDS011;67412;49.892;14.490;2023-07-24T02:26:10;6.85;;;2.53;;
78169;SDS011;67412;49.892;14.490;2023-07-24T02:28:36;7.55;;;2.55;;
78169;SDS011;67412;49.892;14.490;2023-07-24T02:31:01;8.20;;;2.90;;
78169;SDS011;67412;49.892;14.490;2023-07-24T02:33:26;7.28;;;2.83;;
78169;SDS011;67412;49.892;14.490;2023-07-24T02:35:52;9.68;;;3.08;;
78169;SDS011;67412;49.892;14.490;2023-07-24T02:38:18;9.25;;;2.97;;
78169;SDS011;67412;49.892;14.490;2023-07-24T02:40:43;7.82;;;2.72;;
78169;SDS011;67412;49.892;14.490;2023-07-24T02:43:09;9.68;;;2.47;;
78169;SDS011;67412;49.892;14.490;2023-07-24T02:45:35;7.03;;;2.40;;
78169;SDS011;67412;49.892;14.490;2023-07-24T02:48:00;7.20;;;2.90;;
78169;SDS011;67412;49.892;14.490;2023-07-24T02:50:27;7.32;;;2.67;;
78169;SDS011;67412;49.892;14.490;2023-07-24T02:52:52;6.93;;;2.55;;
78169;SDS011;67412;49.892;14.490;2023-07-24T02:55:17;7.22;;;2.60;;
78169;SDS011;67412;49.892;14.490;2023-07-24T02:57:43;8.70;;;2.85;;
78169;SDS011;67412;49.892;14.490;2023-07-24T03:00:08;7.22;;;2.45;;
78169;SDS011;67412;49.892;14.490;2023-07-24T03:02:34;8.23;;;2.90;;
78169;SDS011;67412;49.892;14.490;2023-07-24T03:04:59;6.20;;;2.40;;
78169;SDS011;67412;49.892;14.490;2023-07-24T03:07:25;8.15;;;3.08;;
78169;SDS011;67412;49.892;14.490;2023-07-24T03:09:50;8.13;;;2.63;;
78169;SDS011;67412;49.892;14.490;2023-07-24T03:12:15;8.50;;;3.25;;
78169;SDS011;67412;49.892;14.490;2023-07-24T03:14:41;8.25;;;3.13;;
78169;SDS011;67412;49.892;14.490;2023-07-24T03:17:06;7.97;;;3.03;;
78169;SDS011;67412;49.892;14.490;2023-07-24T03:19:31;10.05;;;3.35;;
78169;SDS011;67412;49.892;14.490;2023-07-24T03:21:57;9.20;;;3.15;;
78169;SDS011;67412;49.892;14.490;2023-07-24T03:24:22;9.18;;;2.92;;
78169;SDS011;67412;49.892;14.490;2023-07-24T03:26:48;8.30;;;3.00;;
78169;SDS011;67412;49.892;14.490;2023-07-24T03:29:13;8.88;;;3.13;;
78169;SDS011;67412;49.892;14.490;2023-07-24T03:31:38;8.90;;;3.25;;
78169;SDS011;67412;49.892;14.490;2023-07-24T03:34:03;8.57;;;3.30;;
78169;SDS011;67412;49.892;14.490;2023-07-24T03:36:29;10.60;;;3.95;;
78169;SDS011;67412;49.892;14.490;2023-07-24T03:38:54;9.10;;;3.58;;
78169;SDS011;67412;49.892;14.490;2023-07-24T03:41:19;10.15;;;3.78;;
78169;SDS011;67412;49.892;14.490;2023-07-24T03:43:45;8.15;;;3.25;;
78169;SDS011;67412;49.892;14.490;2023-07-24T03:46:10;8.45;;;3.05;;
78169;SDS011;67412;49.892;14.490;2023-07-24T03:48:35;9.00;;;3.30;;
78169;SDS011;67412;49.892;14.490;2023-07-24T03:51:01;9.43;;;3.28;;
78169;SDS011;67412;49.892;14.490;2023-07-24T03:53:27;8.38;;;3.70;;
78169;SDS011;67412;49.892;14.490;2023-07-24T03:55:52;10.10;;;3.30;;
78169;SDS011;67412;49.892;14.490;2023-07-24T03:58:18;10.05;;;3.35;;
78169;SDS011;67412;49.892;14.490;2023-07-24T04:00:43;8.13;;;3.42;;
78169;SDS011;67412;49.892;14.490;2023-07-24T04:03:09;9.75;;;3.40;;
78169;SDS011;67412;49.892;14.490;2023-07-24T04:05:35;8.43;;;3.40;;
78169;SDS011;67412;49.892;14.490;2023-07-24T04:08:01;8.80;;;3.67;;
78169;SDS011;67412;49.892;14.490;2023-07-24T04:10:27;10.73;;;3.55;;
78169;SDS011;67412;49.892;14.490;2023-07-24T04:12:53;10.48;;;3.80;;
78169;SDS011;67412;49.892;14.490;2023-07-24T04:15:19;10.32;;;3.58;;
78169;SDS011;67412;49.892;14.490;2023-07-24T04:17:44;8.85;;;3.58;;
78169;SDS011;67412;49.892;14.490;2023-07-24T04:20:09;8.77;;;3.30;;
78169;SDS011;67412;49.892;14.490;2023-07-24T04:22:35;8.65;;;3.22;;
78169;SDS011;67412;49.892;14.490;2023-07-24T04:25:00;9.45;;;3.40;;
78169;SDS011;67412;49.892;14.490;2023-07-24T04:27:26;8.50;;;3.20;;
78169;SDS011;67412;49.892;14.490;2023-07-24T04:29:51;8.20;;;3.15;;
78169;SDS011;67412;49.892;14.490;2023-07-24T04:32:16;8.95;;;3.20;;
78169;SDS011;67412;49.892;14.490;2023-07-24T04:34:41;8.95;;;3.20;;
78169;SDS011;67412;49.892;14.490;2023-07-24T04:37:07;9.18;;;3.75;;
78169;SDS011;67412;49.892;14.490;2023-07-24T04:39:32;8.73;;;3.15;;
78169;SDS011;67412;49.892;14.490;2023-07-24T04:41:58;10.48;;;3.92;;
78169;SDS011;67412;49.892;14.490;2023-07-24T04:44:24;8.25;;;3.42;;
78169;SDS011;67412;49.892;14.490;2023-07-24T04:46:49;9.43;;;3.63;;
78169;SDS011;67412;49.892;14.490;2023-07-24T04:49:15;9.90;;;3.55;;
78169;SDS011;67412;49.892;14.490;2023-07-24T04:51:40;9.55;;;3.97;;
78169;SDS011;67412;49.892;14.490;2023-07-24T04:54:06;11.27;;;4.20;;
78169;SDS011;67412;49.892;14.490;2023-07-24T04:56:31;8.93;;;3.55;;
78169;SDS011;67412;49.892;14.490;2023-07-24T04:58:56;9.40;;;4.07;;
78169;SDS011;67412;49.892;14.490;2023-07-24T05:01:22;11.18;;;4.45;;
78169;SDS011;67412;49.892;14.490;2023-07-24T05:03:47;10.20;;;3.65;;
78169;SDS011;67412;49.892;14.490;2023-07-24T05:06:13;11.80;;;4.55;;
78169;SDS011;67412;49.892;14.490;2023-07-24T05:08:38;9.55;;;3.80;;
78169;SDS011;67412;49.892;14.490;2023-07-24T05:11:03;9.32;;;4.20;;
78169;SDS011;67412;49.892;14.490;2023-07-24T05:13:29;10.02;;;3.92;;
78169;SDS011;67412;49.892;14.490;2023-07-24T05:15:54;10.93;;;4.05;;
78169;SDS011;67412;49.892;14.490;2023-07-24T05:18:19;11.60;;;3.92;;
78169;SDS011;67412;49.892;14.490;2023-07-24T05:20:45;10.85;;;3.70;;
78169;SDS011;67412;49.892;14.490;2023-07-24T05:23:12;9.95;;;3.72;;
78169;SDS011;67412;49.892;14.490;2023-07-24T05:25:38;10.43;;;3.58;;
78169;SDS011;67412;49.892;14.490;2023-07-24T05:28:03;10.70;;;4.10;;
78169;SDS011;67412;49.892;14.490;2023-07-24T05:30:28;10.27;;;3.72;;
78169;SDS011;67412;49.892;14.490;2023-07-24T05:32:53;8.48;;;3.40;;
78169;SDS011;67412;49.892;14.490;2023-07-24T05:35:19;11.10;;;4.10;;
78169;SDS011;67412;49.892;14.490;2023-07-24T05:37:44;9.13;;;3.58;;
78169;SDS011;67412;49.892;14.490;2023-07-24T05:40:10;8.90;;;3.63;;
78169;SDS011;67412;49.892;14.490;2023-07-24T05:42:35;8.70;;;3.22;;
78169;SDS011;67412;49.892;14.490;2023-07-24T05:45:06;8.70;;;3.58;;
78169;SDS011;67412;49.892;14.490;2023-07-24T05:47:32;9.35;;;3.67;;
78169;SDS011;67412;49.892;14.490;2023-07-24T05:49:58;9.93;;;3.35;;
78169;SDS011;67412;49.892;14.490;2023-07-24T05:52:23;8.57;;;3.22;;
78169;SDS011;67412;49.892;14.490;2023-07-24T05:54:49;8.70;;;3.95;;
78169;SDS011;67412;49.892;14.490;2023-07-24T05:57:14;9.95;;;3.92;;
78169;SDS011;67412;49.892;14.490;2023-07-24T05:59:39;8.65;;;3.40;;
78169;SDS011;67412;49.892;14.490;2023-07-24T06:02:05;8.95;;;3.40;;
78169;SDS011;67412;49.892;14.490;2023-07-24T06:04:31;9.30;;;3.60;;
78169;SDS011;67412;49.892;14.490;2023-07-24T06:06:56;9.40;;;3.63;;
78169;SDS011;67412;49.892;14.490;2023-07-24T06:09:21;10.48;;;3.63;;
78169;SDS011;67412;49.892;14.490;2023-07-24T06:11:47;10.02;;;3.80;;
78169;SDS011;67412;49.892;14.490;2023-07-24T06:14:12;10.20;;;3.63;;
78169;SDS011;67412;49.892;14.490;2023-07-24T06:16:37;8.73;;;3.70;;
78169;SDS011;67412;49.892;14.490;2023-07-24T06:19:03;10.02;;;3.78;;
78169;SDS011;67412;49.892;14.490;2023-07-24T06:21:28;9.80;;;3.88;;
78169;SDS011;67412;49.892;14.490;2023-07-24T06:23:53;9.35;;;3.65;;
78169;SDS011;67412;49.892;14.490;2023-07-24T06:26:19;9.45;;;3.63;;
78169;SDS011;67412;49.892;14.490;2023-07-24T06:28:44;10.90;;;3.45;;
78169;SDS011;67412;49.892;14.490;2023-07-24T06:31:09;9.45;;;3.63;;
78169;SDS011;67412;49.892;14.490;2023-07-24T06:33:35;8.05;;;3.20;;
78169;SDS011;67412;49.892;14.490;2023-07-24T06:36:00;8.98;;;3.72;;
78169;SDS011;67412;49.892;14.490;2023-07-24T06:38:25;9.40;;;3.80;;
78169;SDS011;67412;49.892;14.490;2023-07-24T06:40:51;8.60;;;3.30;;
78169;SDS011;67412;49.892;14.490;2023-07-24T06:43:16;11.57;;;4.20;;
78169;SDS011;67412;49.892;14.490;2023-07-24T06:45:42;8.05;;;3.53;;
78169;SDS011;67412;49.892;14.490;2023-07-24T06:48:07;9.23;;;3.30;;
78169;SDS011;67412;49.892;14.490;2023-07-24T06:50:32;8.25;;;3.17;;
78169;SDS011;67412;49.892;14.490;2023-07-24T06:52:58;9.65;;;3.60;;
78169;SDS011;67412;49.892;14.490;2023-07-24T06:55:23;9.27;;;3.45;;
78169;SDS011;67412;49.892;14.490;2023-07-24T06:57:48;8.98;;;3.75;;
78169;SDS011;67412;49.892;14.490;2023-07-24T07:00:14;9.13;;;3.80;;
78169;SDS011;67412;49.892;14.490;2023-07-24T07:02:39;8.93;;;3.75;;
78169;SDS011;67412;49.892;14.490;2023-07-24T07:05:05;8.43;;;3.90;;
78169;SDS011;67412;49.892;14.490;2023-07-24T07:07:30;9.40;;;3.65;;
78169;SDS011;67412;49.892;14.490;2023-07-24T07:09:56;8.95;;;3.63;;
78169;SDS011;67412;49.892;14.490;2023-07-24T07:12:21;8.18;;;3.17;;
78169;SDS011;67412;49.892;14.490;2023-07-24T07:14:46;8.90;;;3.45;;
78169;SDS011;67412;49.892;14.490;2023-07-24T07:17:12;9.10;;;3.50;;
78169;SDS011;67412;49.892;14.490;2023-07-24T07:19:37;9.52;;;3.78;;
78169;SDS011;67412;49.892;14.490;2023-07-24T07:22:03;7.43;;;3.28;;
78169;SDS011;67412;49.892;14.490;2023-07-24T07:24:28;9.27;;;3.67;;
78169;SDS011;67412;49.892;14.490;2023-07-24T07:26:53;11.88;;;3.85;;
78169;SDS011;67412;49.892;14.490;2023-07-24T07:29:19;7.88;;;3.25;;
78169;SDS011;67412;49.892;14.490;2023-07-24T07:31:44;9.95;;;4.03;;
78169;SDS011;67412;49.892;14.490;2023-07-24T07:34:09;9.32;;;3.60;;
78169;SDS011;67412;49.892;14.490;2023-07-24T07:36:35;10.75;;;4.10;;
78169;SDS011;67412;49.892;14.490;2023-07-24T07:39:00;8.05;;;3.08;;
78169;SDS011;67412;49.892;14.490;2023-07-24T07:41:26;8.30;;;3.38;;
78169;SDS011;67412;49.892;14.490;2023-07-24T07:43:51;9.82;;;3.60;;
78169;SDS011;67412;49.892;14.490;2023-07-24T07:46:17;10.32;;;3.90;;
78169;SDS011;67412;49.892;14.490;2023-07-24T07:48:42;9.15;;;4.05;;
78169;SDS011;67412;49.892;14.490;2023-07-24T07:51:07;7.55;;;3.17;;
78169;SDS011;67412;49.892;14.490;2023-07-24T07:53:33;8.75;;;3.72;;
78169;SDS011;67412;49.892;14.490;2023-07-24T07:55:58;8.82;;;4.03;;
78169;SDS011;67412;49.892;14.490;2023-07-24T07:58:27;9.70;;;3.85;;
78169;SDS011;67412;49.892;14.490;2023-07-24T08:00:52;8.85;;;3.78;;
78169;SDS011;67412;49.892;14.490;2023-07-24T08:03:17;8.60;;;3.70;;
78169;SDS011;67412;49.892;14.490;2023-07-24T08:05:43;9.07;;;3.65;;
78169;SDS011;67412;49.892;14.490;2023-07-24T08:08:08;8.90;;;3.88;;
78169;SDS011;67412;49.892;14.490;2023-07-24T08:10:36;11.57;;;4.30;;
78169;SDS011;67412;49.892;14.490;2023-07-24T08:13:02;10.20;;;4.15;;
78169;SDS011;67412;49.892;14.490;2023-07-24T08:15:27;8.82;;;3.80;;
78169;SDS011;67412;49.892;14.490;2023-07-24T08:17:53;8.43;;;3.58;;
78169;SDS011;67412;49.892;14.490;2023-07-24T08:20:18;8.75;;;3.85;;
78169;SDS011;67412;49.892;14.490;2023-07-24T08:22:43;8.63;;;4.03;;
78169;SDS011;67412;49.892;14.490;2023-07-24T08:25:09;11.32;;;4.20;;
78169;SDS011;67412;49.892;14.490;2023-07-24T08:27:34;7.93;;;3.42;;
78169;SDS011;67412;49.892;14.490;2023-07-24T08:29:59;10.15;;;4.65;;
78169;SDS011;67412;49.892;14.490;2023-07-24T08:32:25;10.93;;;3.80;;
78169;SDS011;67412;49.892;14.490;2023-07-24T08:34:50;8.70;;;3.83;;
78169;SDS011;67412;49.892;14.490;2023-07-24T08:37:15;10.82;;;4.30;;
78169;SDS011;67412;49.892;14.490;2023-07-24T08:39:40;9.98;;;3.88;;
78169;SDS011;67412;49.892;14.490;2023-07-24T08:42:10;9.70;;;4.28;;
78169;SDS011;67412;49.892;14.490;2023-07-24T08:44:36;8.75;;;4.28;;
78169;SDS011;67412;49.892;14.490;2023-07-24T08:49:29;10.50;;;4.35;;
78169;SDS011;67412;49.892;14.490;2023-07-24T08:51:55;8.63;;;4.40;;
78169;SDS011;67412;49.892;14.490;2023-07-24T08:54:21;9.15;;;4.22;;
78169;SDS011;67412;49.892;14.490;2023-07-24T08:56:49;9.15;;;3.97;;
78169;SDS011;67412;49.892;14.490;2023-07-24T08:59:16;10.30;;;4.55;;
78169;SDS011;67412;49.892;14.490;2023-07-24T09:01:42;8.95;;;3.90;;
78169;SDS011;67412;49.892;14.490;2023-07-24T09:04:07;9.18;;;4.50;;
78169;SDS011;67412;49.892;14.490;2023-07-24T09:06:33;10.52;;;4.50;;
78169;SDS011;67412;49.892;14.490;2023-07-24T09:08:58;9.23;;;4.07;;
78169;SDS011;67412;49.892;14.490;2023-07-24T09:11:23;9.88;;;3.90;;
78169;SDS011;67412;49.892;14.490;2023-07-24T09:13:49;9.82;;;4.28;;
78169;SDS011;67412;49.892;14.490;2023-07-24T09:16:25;8.65;;;3.80;;
78169;SDS011;67412;49.892;14.490;2023-07-24T09:18:52;9.15;;;4.25;;
78169;SDS011;67412;49.892;14.490;2023-07-24T09:21:30;9.23;;;4.18;;
78169;SDS011;67412;49.892;14.490;2023-07-24T09:23:56;11.77;;;4.63;;
78169;SDS011;67412;49.892;14.490;2023-07-24T09:26:23;9.95;;;4.78;;
78169;SDS011;67412;49.892;14.490;2023-07-24T09:28:52;8.63;;;3.72;;
78169;SDS011;67412;49.892;14.490;2023-07-24T09:31:18;10.18;;;4.40;;
78169;SDS011;67412;49.892;14.490;2023-07-24T09:33:44;10.38;;;4.18;;
78169;SDS011;67412;49.892;14.490;2023-07-24T09:36:09;9.18;;;4.20;;
78169;SDS011;67412;49.892;14.490;2023-07-24T09:38:36;9.23;;;4.40;;
78169;SDS011;67412;49.892;14.490;2023-07-24T09:41:02;9.48;;;4.60;;
78169;SDS011;67412;49.892;14.490;2023-07-24T09:43:28;10.25;;;5.13;;
78169;SDS011;67412;49.892;14.490;2023-07-24T09:48:21;8.68;;;3.97;;
78169;SDS011;67412;49.892;14.490;2023-07-24T09:50:49;9.70;;;4.38;;
78169;SDS011;67412;49.892;14.490;2023-07-24T09:55:47;10.98;;;4.82;;
78169;SDS011;67412;49.892;14.490;2023-07-24T09:58:17;8.70;;;4.10;;
78169;SDS011;67412;49.892;14.490;2023-07-24T10:00:43;9.73;;;4.65;;
78169;SDS011;67412;49.892;14.490;2023-07-24T10:03:09;9.70;;;4.45;;
78169;SDS011;67412;49.892;14.490;2023-07-24T10:05:35;8.55;;;3.53;;
78169;SDS011;67412;49.892;14.490;2023-07-24T10:08:01;9.02;;;3.95;;
78169;SDS011;67412;49.892;14.490;2023-07-24T10:10:26;10.02;;;4.43;;
78169;SDS011;67412;49.892;14.490;2023-07-24T10:12:55;9.93;;;3.95;;
78169;SDS011;67412;49.892;14.490;2023-07-24T10:15:20;9.35;;;3.60;;
78169;SDS011;67412;49.892;14.490;2023-07-24T10:17:46;8.90;;;3.80;;
78169;SDS011;67412;49.892;14.490;2023-07-24T10:20:11;10.65;;;3.92;;
78169;SDS011;67412;49.892;14.490;2023-07-24T10:22:40;10.27;;;4.45;;
78169;SDS011;67412;49.892;14.490;2023-07-24T10:25:07;8.88;;;4.07;;
78169;SDS011;67412;49.892;14.490;2023-07-24T10:27:36;8.57;;;3.78;;
78169;SDS011;67412;49.892;14.490;2023-07-24T10:30:06;10.07;;;3.67;;
78169;SDS011;67412;49.892;14.490;2023-07-24T10:35:00;9.32;;;3.63;;
78169;SDS011;67412;49.892;14.490;2023-07-24T10:37:37;11.95;;;4.00;;
78169;SDS011;67412;49.892;14.490;2023-07-24T10:40:04;10.30;;;4.38;;
78169;SDS011;67412;49.892;14.490;2023-07-24T10:42:30;9.32;;;4.10;;
78169;SDS011;67412;49.892;14.490;2023-07-24T10:45:05;10.50;;;4.22;;
78169;SDS011;67412;49.892;14.490;2023-07-24T10:47:31;11.10;;;4.18;;
78169;SDS011;67412;49.892;14.490;2023-07-24T10:49:57;9.70;;;3.95;;
78169;SDS011;67412;49.892;14.490;2023-07-24T10:52:29;9.60;;;4.30;;
78169;SDS011;67412;49.892;14.490;2023-07-24T10:54:56;9.77;;;4.43;;
78169;SDS011;67412;49.892;14.490;2023-07-24T10:57:25;8.73;;;4.00;;
78169;SDS011;67412;49.892;14.490;2023-07-24T10:59:56;10.25;;;4.40;;
78169;SDS011;67412;49.892;14.490;2023-07-24T11:02:22;10.20;;;4.65;;
78169;SDS011;67412;49.892;14.490;2023-07-24T11:04:48;9.02;;;3.97;;
78169;SDS011;67412;49.892;14.490;2023-07-24T11:07:14;9.82;;;4.60;;
78169;SDS011;67412;49.892;14.490;2023-07-24T11:09:40;10.77;;;4.47;;
78169;SDS011;67412;49.892;14.490;2023-07-24T11:12:09;10.88;;;4.20;;
78169;SDS011;67412;49.892;14.490;2023-07-24T11:14:50;11.05;;;4.88;;
78169;SDS011;67412;49.892;14.490;2023-07-24T11:17:20;10.43;;;4.20;;
78169;SDS011;67412;49.892;14.490;2023-07-24T11:19:45;9.88;;;4.50;;
78169;SDS011;67412;49.892;14.490;2023-07-24T11:22:11;9.85;;;3.83;;
78169;SDS011;67412;49.892;14.490;2023-07-24T11:24:45;10.98;;;4.30;;
78169;SDS011;67412;49.892;14.490;2023-07-24T11:27:15;9.45;;;4.63;;
78169;SDS011;67412;49.892;14.490;2023-07-24T11:29:41;8.63;;;3.58;;
78169;SDS011;67412;49.892;14.490;2023-07-24T11:32:12;10.50;;;4.10;;
78169;SDS011;67412;49.892;14.490;2023-07-24T11:34:37;12.10;;;5.13;;
78169;SDS011;67412;49.892;14.490;2023-07-24T11:37:02;10.38;;;4.80;;
78169;SDS011;67412;49.892;14.490;2023-07-24T11:39:28;10.20;;;4.47;;
78169;SDS011;67412;49.892;14.490;2023-07-24T11:41:54;10.05;;;4.50;;
78169;SDS011;67412;49.892;14.490;2023-07-24T11:44:26;10.07;;;4.43;;
78169;SDS011;67412;49.892;14.490;2023-07-24T11:46:52;10.50;;;4.53;;
78169;SDS011;67412;49.892;14.490;2023-07-24T11:49:25;8.52;;;3.70;;
78169;SDS011;67412;49.892;14.490;2023-07-24T11:51:51;12.27;;;4.90;;
78169;SDS011;67412;49.892;14.490;2023-07-24T11:54:17;10.02;;;5.00;;
78169;SDS011;67412;49.892;14.490;2023-07-24T11:56:42;9.27;;;3.85;;
78169;SDS011;67412;49.892;14.490;2023-07-24T11:59:11;10.60;;;4.85;;
78169;SDS011;67412;49.892;14.490;2023-07-24T12:01:40;10.13;;;4.43;;
78169;SDS011;67412;49.892;14.490;2023-07-24T12:04:06;11.52;;;4.95;;
78169;SDS011;67412;49.892;14.490;2023-07-24T12:06:31;10.75;;;4.75;;
78169;SDS011;67412;49.892;14.490;2023-07-24T12:09:03;11.73;;;4.75;;
78169;SDS011;67412;49.892;14.490;2023-07-24T12:11:30;10.85;;;4.72;;
78169;SDS011;67412;49.892;14.490;2023-07-24T12:16:22;11.20;;;4.57;;
78169;SDS011;67412;49.892;14.490;2023-07-24T12:18:47;11.70;;;5.18;;
78169;SDS011;67412;49.892;14.490;2023-07-24T12:21:12;12.98;;;5.28;;
78169;SDS011;67412;49.892;14.490;2023-07-24T12:23:38;11.10;;;4.65;;
78169;SDS011;67412;49.892;14.490;2023-07-24T12:26:03;10.55;;;5.03;;
78169;SDS011;67412;49.892;14.490;2023-07-24T12:28:29;12.10;;;5.47;;
78169;SDS011;67412;49.892;14.490;2023-07-24T12:30:54;10.50;;;4.53;;
78169;SDS011;67412;49.892;14.490;2023-07-24T12:33:19;11.98;;;4.97;;
78169;SDS011;67412;49.892;14.490;2023-07-24T12:35:48;11.82;;;5.20;;
78169;SDS011;67412;49.892;14.490;2023-07-24T12:38:14;11.60;;;4.97;;
78169;SDS011;67412;49.892;14.490;2023-07-24T12:40:39;11.20;;;4.82;;
78169;SDS011;67412;49.892;14.490;2023-07-24T12:43:05;10.88;;;4.85;;
78169;SDS011;67412;49.892;14.490;2023-07-24T12:45:30;13.32;;;5.28;;
78169;SDS011;67412;49.892;14.490;2023-07-24T12:47:55;12.30;;;5.55;;
78169;SDS011;67412;49.892;14.490;2023-07-24T12:50:21;11.77;;;4.88;;
78169;SDS011;67412;49.892;14.490;2023-07-24T12:52:48;12.43;;;5.25;;
78169;SDS011;67412;49.892;14.490;2023-07-24T12:55:13;11.10;;;5.32;;
78169;SDS011;67412;49.892;14.490;2023-07-24T12:57:39;12.32;;;5.47;;
78169;SDS011;67412;49.892;14.490;2023-07-24T13:00:04;11.13;;;5.57;;
78169;SDS011;67412;49.892;14.490;2023-07-24T13:02:30;11.40;;;5.25;;
78169;SDS011;67412;49.892;14.490;2023-07-24T13:04:57;13.43;;;6.50;;
78169;SDS011;67412;49.892;14.490;2023-07-24T13:07:22;11.88;;;5.38;;
78169;SDS011;67412;49.892;14.490;2023-07-24T13:09:47;11.13;;;4.95;;
78169;SDS011;67412;49.892;14.490;2023-07-24T13:12:13;11.43;;;5.25;;
78169;SDS011;67412;49.892;14.490;2023-07-24T13:14:38;11.30;;;5.65;;
78169;SDS011;67412;49.892;14.490;2023-07-24T13:17:03;13.60;;;6.03;;
78169;SDS011;67412;49.892;14.490;2023-07-24T13:19:29;10.73;;;4.82;;
78169;SDS011;67412;49.892;14.490;2023-07-24T13:21:54;10.88;;;5.03;;
78169;SDS011;67412;49.892;14.490;2023-07-24T13:24:20;10.82;;;5.22;;
78169;SDS011;67412;49.892;14.490;2023-07-24T13:26:45;10.65;;;5.32;;
78169;SDS011;67412;49.892;14.490;2023-07-24T13:29:10;10.82;;;5.75;;
78169;SDS011;67412;49.892;14.490;2023-07-24T13:31:36;11.60;;;5.47;;
78169;SDS011;67412;49.892;14.490;2023-07-24T13:34:02;11.07;;;4.97;;
78169;SDS011;67412;49.892;14.490;2023-07-24T13:36:27;10.55;;;5.05;;
78169;SDS011;67412;49.892;14.490;2023-07-24T13:38:53;11.27;;;5.35;;
78169;SDS011;67412;49.892;14.490;2023-07-24T13:41:18;9.77;;;5.05;;
78169;SDS011;67412;49.892;14.490;2023-07-24T13:43:43;13.23;;;4.93;;
78169;SDS011;67412;49.892;14.490;2023-07-24T13:46:09;10.75;;;5.10;;
78169;SDS011;67412;49.892;14.490;2023-07-24T13:48:34;10.70;;;5.18;;
78169;SDS011;67412;49.892;14.490;2023-07-24T13:50:59;10.80;;;4.95;;
78169;SDS011;67412;49.892;14.490;2023-07-24T13:53:25;12.10;;;5.05;;
78169;SDS011;67412;49.892;14.490;2023-07-24T13:55:50;10.63;;;5.07;;
78169;SDS011;67412;49.892;14.490;2023-07-24T13:58:16;11.20;;;5.30;;
78169;SDS011;67412;49.892;14.490;2023-07-24T14:00:41;11.32;;;4.97;;
78169;SDS011;67412;49.892;14.490;2023-07-24T14:03:06;11.90;;;4.68;;
78169;SDS011;67412;49.892;14.490;2023-07-24T14:05:32;9.25;;;4.10;;
78169;SDS011;67412;49.892;14.490;2023-07-24T14:07:59;9.63;;;4.53;;
78169;SDS011;67412;49.892;14.490;2023-07-24T14:10:25;10.00;;;4.03;;
78169;SDS011;67412;49.892;14.490;2023-07-24T14:12:50;9.45;;;4.25;;
78169;SDS011;67412;49.892;14.490;2023-07-24T14:15:15;8.73;;;3.67;;
78169;SDS011;67412;49.892;14.490;2023-07-24T14:17:41;8.98;;;3.45;;
78169;SDS011;67412;49.892;14.490;2023-07-24T14:20:06;9.45;;;3.67;;
78169;SDS011;67412;49.892;14.490;2023-07-24T14:22:32;6.20;;;2.78;;
78169;SDS011;67412;49.892;14.490;2023-07-24T14:24:57;8.32;;;3.30;;
78169;SDS011;67412;49.892;14.490;2023-07-24T14:27:22;8.00;;;3.50;;
78169;SDS011;67412;49.892;14.490;2023-07-24T14:29:48;9.07;;;3.50;;
78169;SDS011;67412;49.892;14.490;2023-07-24T14:32:13;9.07;;;3.10;;
78169;SDS011;67412;49.892;14.490;2023-07-24T14:34:40;9.40;;;3.28;;
78169;SDS011;67412;49.892;14.490;2023-07-24T14:37:05;11.60;;;2.92;;
78169;SDS011;67412;49.892;14.490;2023-07-24T14:39:31;10.35;;;4.25;;
78169;SDS011;67412;49.892;14.490;2023-07-24T14:41:56;8.38;;;3.50;;
78169;SDS011;67412;49.892;14.490;2023-07-24T14:44:21;8.98;;;3.22;;